< < Back
Terminal Aerodrome Forecast


Current Version              Previous Versions:   1  2  3  4  5  6  7  8  9  

Terminal Aerodrome Forecast

319
FTUS42 KTAE 260500
TAFVLD
TAF
KVLD 260520Z 2606/2706 20005KT P6SM FEW030 SCT040
     FM261300 31010G18KT P6SM SCT050 BKN120
     FM261900 29012G22KT P6SM BKN040
     FM262300 29004KT P6SM SCT250=

Latest METAR

719
SAUS70 KWBC 260800 RRG
MTRVLD
METAR KVLD 260753Z AUTO 00000KT 10SM CLR 10/09 A2980 RMK AO2 SLP098
T01000089 TSNO


USA.gov is the U.S. government's official web portal to all federal, state and local government web resources and services.